Seaboard Ocean — A8SB7 — position and weather

sailwx.info

Track history (hours):
 
Tides and Currents Weather Stations Pressure Air Temp Water Temp Dewpoint Dewpoint Depression Visibility Wind Speed Wind Dir Waves Ship Positions

Seaboard Ocean

Last reported at 2017-Nov-20 00:26 UTC. Time now 2017-Nov-23 09:33 UTC.
Position N 17°08' W 061°51'.

Length 148 m; draft 7.9 m.

Type: Ship. MMSI: 636091731.

Date/timePositionNaut miles runAvg speedWind from/ knotsBaromVisibWave heightAir tempDewpointWater temp
2017-Nov-20 00:26N 17°08' W 061°51'0 0.0
2017-Nov-19 23:59N 17°08' W 061°51'0 0.0
2017-Nov-19 23:29N 17°08' W 061°51'0 0.0
2017-Nov-19 22:58N 17°08' W 061°51'0 0.1
2017-Nov-19 22:30N 17°07' W 061°51'1 1.8
2017-Nov-19 22:00N 17°08' W 061°52'510.4
2017-Nov-19 21:30N 17°11' W 061°57'816.5
2017-Nov-19 21:00N 17°16' W 062°03'816.7
2017-Nov-19 20:30N 17°21' W 062°11'817.0
2017-Nov-19 20:00N 17°26' W 062°18'917.1
2017-Nov-19 19:30N 17°30' W 062°26'2816.9
2017-Nov-19 17:50N 17°47' W 062°50'20 3.4
2017-Nov-19 11:47N 18°00' W 063°06'  
2017-Nov-16 19:38N 26°04' W 079°29'316.9
2017-Nov-16 19:27N 26°03' W 079°33'716.4
2017-Nov-16 19:00N 25°59' W 079°40'816.1
2017-Nov-16 18:30N 25°55' W 079°47'816.4
2017-Nov-16 18:00N 25°51' W 079°55'816.5
2017-Nov-16 17:30N 25°47' W 080°03'511.0
2017-Nov-16 17:01N 25°46' W 080°09'1 2.3
2017-Nov-16 16:26N 25°46' W 080°10'0 0.0
2017-Nov-16 15:58N 25°46' W 080°10'0 0.0
2017-Nov-16 15:28N 25°46' W 080°10'0 0.0
2017-Nov-16 14:58N 25°46' W 080°10'0 0.0
2017-Nov-16 14:28N 25°46' W 080°10'0 0.0
2017-Nov-16 14:00N 25°46' W 080°10'0 0.0
2017-Nov-16 13:30N 25°46' W 080°10'0 0.0
2017-Nov-16 12:57N 25°46' W 080°10'0 0.0
2017-Nov-16 12:30N 25°46' W 080°10'0 0.0
2017-Nov-16 12:00N 25°46' W 080°10'0 0.0
2017-Nov-16 11:29N 25°46' W 080°10'0 0.0
2017-Nov-16 10:59N 25°46' W 080°10'0 0.0
2017-Nov-16 10:29N 25°46' W 080°10'0 0.0
2017-Nov-16 09:59N 25°46' W 080°10'0 0.0
2017-Nov-16 09:29N 25°46' W 080°10'0 0.0
2017-Nov-16 08:58N 25°46' W 080°10'0 0.0
2017-Nov-16 08:28N 25°46' W 080°10'0 0.0
2017-Nov-16 07:58N 25°46' W 080°10'0 0.0
2017-Nov-16 07:28N 25°46' W 080°10'0 0.0
2017-Nov-16 07:00N 25°46' W 080°10'0 0.0
2017-Nov-16 06:30N 25°46' W 080°10'0 0.0
2017-Nov-16 05:57N 25°46' W 080°10'0 0.0
2017-Nov-16 05:24N 25°46' W 080°10'0 0.0
2017-Nov-16 05:00N 25°46' W 080°10'0 0.0
2017-Nov-16 04:29N 25°46' W 080°10'0 0.0
2017-Nov-16 03:59N 25°46' W 080°10'0 0.0
2017-Nov-16 03:26N 25°46' W 080°10'0 0.0
2017-Nov-16 02:59N 25°46' W 080°10'0 0.0
2017-Nov-16 02:28N 25°46' W 080°10'0 0.0
2017-Nov-16 01:58N 25°46' W 080°10'0 0.0
2017-Nov-16 01:28N 25°46' W 080°10'0 0.0
2017-Nov-16 00:55N 25°46' W 080°10'0 0.0
2017-Nov-16 00:30N 25°46' W 080°10'0 0.0
2017-Nov-16 00:00N 25°46' W 080°10'0 0.0
2017-Nov-15 23:30N 25°46' W 080°10'0 0.0
2017-Nov-15 23:00N 25°46' W 080°10'0 0.0
2017-Nov-15 22:30N 25°46' W 080°10'0 0.0
2017-Nov-15 21:59N 25°46' W 080°10'0 0.0
2017-Nov-15 21:30N 25°46' W 080°10'0 0.0
2017-Nov-15 20:57N 25°46' W 080°10'0 0.0
2017-Nov-15 20:27N 25°46' W 080°10'0 0.0
2017-Nov-15 20:01N 25°46' W 080°10'0 0.1
2017-Nov-15 19:30N 25°46' W 080°10'1 1.8
2017-Nov-15 19:00N 25°46' W 080°09'5 9.2
2017-Nov-15 18:30N 25°45' W 080°04'713.6
2017-Nov-15 18:00N 25°39' W 080°01'816.6
2017-Nov-15 17:30N 25°31' W 080°00'  
Track history (hours):
 
Tides and Currents Weather Stations Pressure Air Temp Water Temp Dewpoint Dewpoint Depression Visibility Wind Speed Wind Dir Waves Ship Positions

Seaboard Ocean

Last reported at 2017-Nov-20 00:26 UTC. Time now 2017-Nov-23 09:33 UTC.
Position N 17°08' W 061°51'.

Length 148 m; draft 7.9 m.

Type: Ship. MMSI: 636091731.

Date/timePositionNaut miles runAvg speedWind from/ knotsBaromVisibWave heightAir tempDewpointWater temp
2017-Nov-20 00:26N 17°08' W 061°51'0 0.0
2017-Nov-19 23:59N 17°08' W 061°51'0 0.0
2017-Nov-19 23:29N 17°08' W 061°51'0 0.0
2017-Nov-19 22:58N 17°08' W 061°51'0 0.1
2017-Nov-19 22:30N 17°07' W 061°51'1 1.8
2017-Nov-19 22:00N 17°08' W 061°52'510.4
2017-Nov-19 21:30N 17°11' W 061°57'816.5
2017-Nov-19 21:00N 17°16' W 062°03'816.7
2017-Nov-19 20:30N 17°21' W 062°11'817.0
2017-Nov-19 20:00N 17°26' W 062°18'917.1
2017-Nov-19 19:30N 17°30' W 062°26'2816.9
2017-Nov-19 17:50N 17°47' W 062°50'20 3.4
2017-Nov-19 11:47N 18°00' W 063°06'  
2017-Nov-16 19:38N 26°04' W 079°29'316.9
2017-Nov-16 19:27N 26°03' W 079°33'716.4
2017-Nov-16 19:00N 25°59' W 079°40'816.1
2017-Nov-16 18:30N 25°55' W 079°47'816.4
2017-Nov-16 18:00N 25°51' W 079°55'816.5
2017-Nov-16 17:30N 25°47' W 080°03'511.0
2017-Nov-16 17:01N 25°46' W 080°09'1 2.3
2017-Nov-16 16:26N 25°46' W 080°10'0 0.0
2017-Nov-16 15:58N 25°46' W 080°10'0 0.0
2017-Nov-16 15:28N 25°46' W 080°10'0 0.0
2017-Nov-16 14:58N 25°46' W 080°10'0 0.0
2017-Nov-16 14:28N 25°46' W 080°10'0 0.0
2017-Nov-16 14:00N 25°46' W 080°10'0 0.0
2017-Nov-16 13:30N 25°46' W 080°10'0 0.0
2017-Nov-16 12:57N 25°46' W 080°10'0 0.0
2017-Nov-16 12:30N 25°46' W 080°10'0 0.0
2017-Nov-16 12:00N 25°46' W 080°10'0 0.0
2017-Nov-16 11:29N 25°46' W 080°10'0 0.0
2017-Nov-16 10:59N 25°46' W 080°10'0 0.0
2017-Nov-16 10:29N 25°46' W 080°10'0 0.0
2017-Nov-16 09:59N 25°46' W 080°10'0 0.0
2017-Nov-16 09:29N 25°46' W 080°10'0 0.0
2017-Nov-16 08:58N 25°46' W 080°10'0 0.0
2017-Nov-16 08:28N 25°46' W 080°10'0 0.0
2017-Nov-16 07:58N 25°46' W 080°10'0 0.0
2017-Nov-16 07:28N 25°46' W 080°10'0 0.0
2017-Nov-16 07:00N 25°46' W 080°10'0 0.0
2017-Nov-16 06:30N 25°46' W 080°10'0 0.0
2017-Nov-16 05:57N 25°46' W 080°10'0 0.0
2017-Nov-16 05:24N 25°46' W 080°10'0 0.0
2017-Nov-16 05:00N 25°46' W 080°10'0 0.0
2017-Nov-16 04:29N 25°46' W 080°10'0 0.0
2017-Nov-16 03:59N 25°46' W 080°10'0 0.0
2017-Nov-16 03:26N 25°46' W 080°10'0 0.0
2017-Nov-16 02:59N 25°46' W 080°10'0 0.0
2017-Nov-16 02:28N 25°46' W 080°10'0 0.0
2017-Nov-16 01:58N 25°46' W 080°10'0 0.0
2017-Nov-16 01:28N 25°46' W 080°10'0 0.0
2017-Nov-16 00:55N 25°46' W 080°10'0 0.0
2017-Nov-16 00:30N 25°46' W 080°10'0 0.0
2017-Nov-16 00:00N 25°46' W 080°10'0 0.0
2017-Nov-15 23:30N 25°46' W 080°10'0 0.0
2017-Nov-15 23:00N 25°46' W 080°10'0 0.0
2017-Nov-15 22:30N 25°46' W 080°10'0 0.0
2017-Nov-15 21:59N 25°46' W 080°10'0 0.0
2017-Nov-15 21:30N 25°46' W 080°10'0 0.0
2017-Nov-15 20:57N 25°46' W 080°10'0 0.0
2017-Nov-15 20:27N 25°46' W 080°10'0 0.0
2017-Nov-15 20:01N 25°46' W 080°10'0 0.1
2017-Nov-15 19:30N 25°46' W 080°10'1 1.8
2017-Nov-15 19:00N 25°46' W 080°09'5 9.2
2017-Nov-15 18:30N 25°45' W 080°04'713.6
2017-Nov-15 18:00N 25°39' W 080°01'816.6
2017-Nov-15 17:30N 25°31' W 080°00'  

Dump ship's entire track history